createdAt,value
2023-05-23T00:00:20.132Z,69.27
2023-05-23T00:02:47.370Z,69.17
2023-05-23T00:05:15.703Z,69.16
2023-05-23T00:07:43.031Z,69.28
2023-05-23T00:10:10.661Z,69.13
2023-05-23T00:12:39.532Z,69.07
2023-05-23T00:15:08.259Z,69.14
2023-05-23T00:17:38.023Z,69.22
2023-05-23T00:20:12.225Z,69.15
2023-05-23T00:22:43.183Z,69.29
2023-05-23T00:25:11.261Z,69.17
2023-05-23T00:27:38.513Z,69.09
2023-05-23T00:30:06.215Z,69.22
2023-05-23T00:32:35.792Z,69.23
2023-05-23T00:35:03.046Z,69.23
2023-05-23T00:37:32.560Z,69.28
2023-05-23T00:40:00.743Z,69.47
2023-05-23T00:42:28.084Z,69.27
2023-05-23T00:44:55.460Z,69.08
2023-05-23T00:47:22.674Z,69.07
2023-05-23T00:49:49.787Z,69.08
2023-05-23T00:52:17.689Z,68.80
2023-05-23T00:54:45.156Z,69.22
2023-05-23T00:57:12.417Z,69.22
2023-05-23T00:59:40.913Z,69.31
2023-05-23T01:02:09.330Z,69.35
2023-05-23T01:04:36.652Z,69.29
2023-05-23T01:07:03.863Z,69.35
2023-05-23T01:09:32.251Z,69.35
2023-05-23T01:12:29.370Z,69.48
2023-05-23T01:15:15.968Z,69.32
2023-05-23T01:18:03.564Z,69.50
2023-05-23T01:20:34.763Z,69.08
2023-05-23T01:23:17.660Z,69.29
2023-05-23T01:26:07.208Z,69.64
2023-05-23T01:28:47.454Z,69.73
2023-05-23T01:31:17.909Z,69.18
2023-05-23T01:33:46.768Z,69.33
2023-05-23T01:36:17.166Z,69.07
2023-05-23T01:38:45.015Z,69.31
2023-05-23T01:41:12.216Z,69.21
2023-05-23T01:43:39.725Z,69.05
2023-05-23T01:46:08.623Z,68.98
2023-05-23T01:48:37.743Z,69.15
2023-05-23T01:51:06.121Z,68.77
2023-05-23T01:53:35.573Z,69.10
2023-05-23T01:56:03.975Z,68.94
2023-05-23T01:58:31.484Z,69.14
2023-05-23T02:00:59.084Z,69.14
2023-05-23T02:03:26.380Z,69.28
2023-05-23T02:05:54.078Z,69.34
2023-05-23T02:08:21.183Z,69.23
2023-05-23T02:10:48.207Z,69.16
2023-05-23T02:13:15.370Z,68.92
2023-05-23T02:15:42.830Z,69.07
2023-05-23T02:18:10.251Z,68.72
2023-05-23T02:21:00.265Z,68.56
2023-05-23T02:23:27.271Z,68.54
2023-05-23T02:25:54.338Z,68.67
2023-05-23T02:28:21.494Z,68.74
2023-05-23T02:30:50.024Z,68.79
2023-05-23T02:33:18.331Z,68.59
2023-05-23T02:35:46.467Z,68.60
2023-05-23T02:38:13.654Z,68.43
2023-05-23T02:40:42.023Z,68.36
2023-05-23T02:43:09.150Z,68.20
2023-05-23T02:45:36.434Z,68.26
2023-05-23T02:48:04.952Z,68.22
2023-05-23T02:50:32.292Z,68.23
2023-05-23T02:52:59.360Z,68.44
2023-05-23T02:55:26.798Z,68.42
2023-05-23T02:57:53.854Z,68.27
2023-05-23T03:00:21.395Z,68.17
2023-05-23T03:02:53.486Z,68.14
2023-05-23T03:05:20.805Z,68.05
2023-05-23T03:07:48.127Z,68.28
2023-05-23T03:10:15.739Z,67.81
2023-05-23T03:12:43.926Z,67.64
2023-05-23T03:15:11.724Z,67.76
2023-05-23T03:17:41.865Z,67.32
2023-05-23T03:20:10.144Z,67.31
2023-05-23T03:22:39.388Z,67.16
2023-05-23T03:25:07.028Z,67.19
2023-05-23T03:27:34.868Z,67.12
2023-05-23T03:30:03.341Z,66.93
2023-05-23T03:32:32.730Z,67.15
2023-05-23T03:34:59.916Z,66.73
2023-05-23T03:37:27.007Z,66.41
2023-05-23T03:39:54.076Z,66.87
2023-05-23T03:42:21.192Z,66.53
2023-05-23T03:44:48.251Z,66.58
2023-05-23T03:47:15.408Z,66.52
2023-05-23T03:49:45.373Z,66.92
2023-05-23T03:52:13.012Z,66.51
2023-05-23T03:54:40.290Z,66.23
2023-05-23T03:57:08.495Z,66.02
2023-05-23T03:59:37.089Z,65.70
2023-05-23T04:02:07.894Z,65.76
2023-05-23T04:04:36.689Z,65.35
2023-05-23T04:07:05.744Z,65.20
2023-05-23T04:09:33.119Z,65.18
2023-05-23T04:12:01.243Z,65.18
2023-05-23T04:14:29.455Z,65.20
2023-05-23T04:16:59.167Z,65.47
2023-05-23T04:19:26.259Z,65.21
2023-05-23T04:21:53.480Z,65.17
2023-05-23T04:24:21.195Z,65.26
2023-05-23T04:26:48.399Z,65.15
2023-05-23T04:29:15.508Z,65.30
2023-05-23T04:31:46.488Z,65.36
2023-05-23T04:34:14.431Z,65.18
2023-05-23T04:36:44.826Z,64.69
2023-05-23T04:39:12.446Z,64.55
2023-05-23T04:41:46.550Z,64.47
2023-05-23T04:44:30.464Z,64.37
2023-05-23T04:47:12.351Z,64.21
2023-05-23T04:50:03.170Z,64.14
2023-05-23T04:52:34.189Z,64.12
2023-05-23T04:55:01.988Z,63.14
2023-05-23T04:57:31.453Z,62.43
2023-05-23T04:59:58.797Z,61.57
2023-05-23T05:02:27.707Z,61.17
2023-05-23T05:04:54.862Z,60.76
2023-05-23T05:07:22.129Z,60.57
2023-05-23T05:09:49.249Z,60.68
2023-05-23T05:12:17.379Z,60.17
2023-05-23T05:14:44.532Z,59.68
2023-05-23T05:17:13.064Z,59.58
2023-05-23T05:19:56.906Z,59.36
2023-05-23T05:22:24.058Z,58.87
2023-05-23T05:24:51.497Z,58.86
2023-05-23T05:27:19.129Z,58.65
2023-05-23T05:29:46.348Z,58.77
2023-05-23T05:32:13.514Z,58.74
2023-05-23T05:34:40.679Z,58.43
2023-05-23T05:37:07.843Z,58.04
2023-05-23T05:39:34.881Z,58.19
2023-05-23T05:42:03.862Z,58.17
2023-05-23T05:44:31.507Z,57.78
2023-05-23T05:46:58.574Z,57.68
2023-05-23T05:49:25.946Z,57.52
2023-05-23T05:51:53.402Z,57.59
2023-05-23T05:54:20.572Z,57.60
2023-05-23T05:56:48.242Z,57.35
2023-05-23T05:59:16.365Z,57.09
2023-05-23T06:01:45.105Z,57.13
2023-05-23T06:04:12.852Z,56.93
2023-05-23T06:06:40.815Z,56.95
2023-05-23T06:09:08.992Z,56.99
2023-05-23T06:11:39.333Z,57.00
2023-05-23T06:14:09.927Z,56.96
2023-05-23T06:16:41.216Z,56.99
2023-05-23T06:19:08.794Z,56.69
2023-05-23T06:21:37.570Z,56.63
2023-05-23T06:24:07.039Z,56.59
2023-05-23T06:26:34.257Z,56.51
2023-05-23T06:29:01.337Z,56.39
2023-05-23T06:31:28.516Z,56.12
2023-05-23T06:33:55.642Z,56.13
2023-05-23T06:36:22.702Z,56.05
2023-05-23T06:38:49.749Z,56.19
2023-05-23T06:41:16.810Z,56.11
2023-05-23T06:43:43.887Z,56.06
2023-05-23T06:46:16.268Z,56.11
2023-05-23T06:48:43.523Z,55.99
2023-05-23T06:51:11.619Z,55.81
2023-05-23T06:53:38.890Z,55.55
2023-05-23T06:56:06.122Z,55.29
2023-05-23T06:58:39.878Z,55.00
2023-05-23T07:01:07.363Z,55.02
2023-05-23T07:03:41.742Z,54.69
2023-05-23T07:06:09.438Z,54.30
2023-05-23T07:08:37.209Z,54.67
2023-05-23T07:11:06.557Z,54.21
2023-05-23T07:13:40.185Z,53.76
2023-05-23T07:16:07.460Z,53.45
2023-05-23T07:18:40.457Z,53.53
2023-05-23T07:21:08.522Z,53.25
2023-05-23T07:23:36.993Z,53.45
2023-05-23T07:26:05.117Z,53.44
2023-05-23T07:28:41.454Z,53.20
2023-05-23T07:31:09.644Z,53.22
2023-05-23T07:33:38.939Z,52.94
2023-05-23T07:36:08.341Z,52.87
2023-05-23T07:38:35.732Z,52.96
2023-05-23T07:41:11.317Z,52.95
2023-05-23T07:43:39.807Z,53.45
2023-05-23T07:46:07.219Z,53.30
2023-05-23T07:48:34.460Z,53.19
2023-05-23T07:51:01.667Z,53.19
2023-05-23T07:53:29.336Z,53.04
2023-05-23T07:55:57.782Z,53.21
2023-05-23T07:58:28.248Z,52.86
2023-05-23T08:00:55.312Z,52.98
2023-05-23T08:03:42.371Z,53.34
2023-05-23T08:06:17.929Z,53.07
2023-05-23T08:08:45.070Z,53.19
2023-05-23T08:11:12.184Z,53.06
2023-05-23T08:13:45.379Z,53.46
2023-05-23T08:16:36.486Z,53.19
2023-05-23T08:19:06.213Z,53.14
2023-05-23T08:21:36.482Z,53.66
2023-05-23T08:24:03.804Z,53.33
2023-05-23T08:26:35.064Z,53.44
2023-05-23T08:29:04.913Z,52.93
2023-05-23T08:31:34.435Z,53.45
2023-05-23T08:34:03.756Z,53.41
2023-05-23T08:36:36.982Z,53.42
2023-05-23T08:39:06.364Z,54.02
2023-05-23T08:41:37.909Z,53.70
2023-05-23T08:44:09.849Z,53.34
2023-05-23T08:46:46.654Z,53.50
2023-05-23T08:49:23.219Z,53.43
2023-05-23T08:51:52.434Z,53.74
2023-05-23T08:54:22.450Z,53.86
2023-05-23T08:56:49.909Z,53.69
2023-05-23T08:59:19.952Z,54.03
2023-05-23T09:01:48.885Z,54.06
2023-05-23T09:04:17.358Z,54.78
2023-05-23T09:06:55.716Z,54.13
2023-05-23T09:09:23.300Z,55.36
2023-05-23T09:11:52.287Z,55.92
2023-05-23T09:14:19.993Z,57.06
2023-05-23T09:16:49.426Z,57.00
2023-05-23T09:19:19.504Z,57.53
2023-05-23T09:21:54.546Z,58.31
2023-05-23T09:24:36.122Z,58.51
2023-05-23T09:27:07.393Z,58.86
2023-05-23T09:29:41.598Z,59.13
2023-05-23T09:32:13.781Z,59.56
2023-05-23T09:35:01.130Z,59.64
2023-05-23T09:37:31.527Z,60.40
2023-05-23T09:40:07.282Z,60.81
2023-05-23T09:42:34.600Z,61.07
2023-05-23T09:45:04.328Z,61.05
2023-05-23T09:47:33.017Z,61.32
2023-05-23T09:50:00.170Z,61.35
2023-05-23T09:52:27.782Z,61.69
2023-05-23T09:54:55.292Z,61.65
2023-05-23T09:57:23.673Z,61.58
2023-05-23T09:59:54.725Z,61.39
2023-05-23T10:03:08.465Z,62.35
2023-05-23T10:05:40.945Z,61.44
2023-05-23T10:08:16.452Z,61.45
2023-05-23T10:10:58.472Z,61.70
2023-05-23T10:13:29.442Z,61.69
2023-05-23T10:16:38.176Z,62.37
2023-05-23T10:19:18.896Z,61.97
2023-05-23T10:21:52.579Z,62.09
2023-05-23T10:24:20.499Z,62.17
2023-05-23T10:26:48.978Z,62.54
2023-05-23T10:29:16.104Z,62.74
2023-05-23T10:31:44.247Z,62.79
2023-05-23T10:34:28.421Z,63.38
2023-05-23T10:37:06.956Z,63.44
2023-05-23T10:39:53.137Z,63.08
2023-05-23T10:42:38.784Z,63.51
2023-05-23T10:45:24.836Z,63.24
2023-05-23T10:47:53.433Z,63.74
2023-05-23T10:50:41.963Z,64.45
2023-05-23T10:53:11.488Z,64.36
2023-05-23T10:55:38.493Z,64.57
2023-05-23T10:58:21.899Z,64.96
2023-05-23T11:01:22.557Z,64.96
2023-05-23T11:03:53.993Z,65.12
2023-05-23T11:06:29.728Z,65.33
2023-05-23T11:09:22.380Z,65.59
2023-05-23T11:12:15.798Z,65.54
2023-05-23T11:14:48.856Z,66.82
2023-05-23T11:17:17.843Z,66.47
2023-05-23T11:20:06.197Z,67.82
2023-05-23T11:22:36.792Z,66.92
2023-05-23T11:25:10.192Z,67.39
2023-05-23T11:27:39.442Z,67.53
2023-05-23T11:30:17.402Z,67.72
2023-05-23T11:32:52.342Z,68.67
2023-05-23T11:35:21.273Z,67.85
2023-05-23T11:37:49.312Z,67.92
2023-05-23T11:40:25.900Z,68.09
2023-05-23T11:42:54.595Z,67.71
2023-05-23T11:45:23.258Z,67.91
2023-05-23T11:47:50.365Z,68.08
2023-05-23T11:50:18.047Z,68.38
2023-05-23T11:52:51.340Z,68.26
2023-05-23T11:55:22.906Z,68.36
2023-05-23T11:57:51.953Z,68.47
2023-05-23T12:00:19.771Z,68.71
2023-05-23T12:02:50.266Z,68.59
2023-05-23T12:05:17.668Z,68.41
2023-05-23T12:07:47.382Z,68.30
2023-05-23T12:10:21.846Z,68.35
2023-05-23T12:12:51.433Z,68.13
2023-05-23T12:15:18.582Z,67.67
2023-05-23T12:17:46.657Z,67.60
2023-05-23T12:20:14.376Z,67.47
2023-05-23T12:22:42.491Z,67.02
2023-05-23T12:25:11.332Z,66.90
2023-05-23T12:27:42.612Z,66.91
2023-05-23T12:30:13.642Z,66.80
2023-05-23T12:32:42.151Z,66.31
2023-05-23T12:35:10.854Z,66.38
2023-05-23T12:37:45.992Z,66.06
2023-05-23T12:40:15.607Z,65.86
2023-05-23T12:42:56.785Z,66.18
2023-05-23T12:45:43.585Z,65.96
2023-05-23T12:48:11.457Z,65.45
2023-05-23T12:50:39.290Z,65.44
2023-05-23T12:53:06.442Z,65.67
2023-05-23T12:55:33.478Z,65.90
2023-05-23T12:58:00.536Z,65.79
2023-05-23T13:00:27.670Z,65.52
2023-05-23T13:02:54.876Z,65.52
2023-05-23T13:05:22.655Z,65.66
2023-05-23T13:07:50.062Z,65.24
2023-05-23T13:10:17.482Z,65.24
2023-05-23T13:12:44.837Z,65.23
2023-05-23T13:15:12.218Z,65.42
2023-05-23T13:17:39.461Z,65.53
2023-05-23T13:20:07.762Z,65.08
2023-05-23T13:22:35.062Z,65.15
2023-05-23T13:25:02.138Z,65.00
2023-05-23T13:27:29.756Z,64.98
2023-05-23T13:29:56.871Z,64.82
2023-05-23T13:32:23.925Z,64.71
2023-05-23T13:34:51.068Z,64.36
2023-05-23T13:37:18.120Z,64.10
2023-05-23T13:39:45.371Z,64.34
2023-05-23T13:42:12.531Z,64.30
2023-05-23T13:44:39.586Z,63.62
2023-05-23T13:47:14.466Z,64.04
2023-05-23T13:49:43.193Z,63.80
2023-05-23T13:52:10.648Z,64.27
2023-05-23T13:54:38.523Z,64.20
2023-05-23T13:57:06.943Z,63.86
2023-05-23T13:59:34.209Z,63.98
2023-05-23T14:02:01.563Z,63.83
2023-05-23T14:04:28.902Z,63.97
2023-05-23T14:06:56.096Z,64.23
2023-05-23T14:09:23.625Z,64.59
2023-05-23T14:11:52.466Z,64.16
2023-05-23T14:14:19.792Z,64.63
2023-05-23T14:16:47.188Z,64.90
2023-05-23T14:19:14.527Z,65.04
2023-05-23T14:21:44.041Z,64.92
2023-05-23T14:24:12.241Z,64.76
2023-05-23T14:26:39.341Z,64.99
2023-05-23T14:29:06.489Z,64.82
2023-05-23T14:31:33.790Z,64.59
2023-05-23T14:34:00.966Z,64.62
2023-05-23T14:36:28.682Z,64.65
2023-05-23T14:38:56.089Z,64.12
2023-05-23T14:41:23.312Z,63.79
2023-05-23T14:43:50.678Z,64.41
2023-05-23T14:46:18.478Z,64.55
2023-05-23T14:48:45.687Z,64.19
2023-05-23T14:51:23.639Z,64.21
2023-05-23T14:53:54.440Z,64.54
2023-05-23T14:56:23.433Z,64.12
2023-05-23T14:58:50.703Z,64.02
2023-05-23T15:01:18.401Z,64.03
2023-05-23T15:03:46.167Z,64.25
2023-05-23T15:06:13.386Z,64.23
2023-05-23T15:08:41.457Z,64.29
2023-05-23T15:11:09.848Z,64.32
2023-05-23T15:13:37.056Z,64.34
2023-05-23T15:16:04.495Z,64.30
2023-05-23T15:18:40.836Z,64.75
2023-05-23T15:21:09.022Z,65.07
2023-05-23T15:23:36.826Z,65.20
2023-05-23T15:26:04.039Z,65.17
2023-05-23T15:28:31.254Z,65.27
2023-05-23T15:30:59.213Z,65.42
2023-05-23T15:33:26.476Z,65.26
2023-05-23T15:35:54.072Z,65.19
2023-05-23T15:38:21.238Z,65.33
2023-05-23T15:40:49.086Z,64.95
2023-05-23T15:43:16.580Z,64.64
2023-05-23T15:45:43.930Z,64.75
2023-05-23T15:48:11.459Z,64.61
2023-05-23T15:50:38.741Z,64.54
2023-05-23T15:53:06.314Z,64.40
2023-05-23T15:55:33.453Z,65.13
2023-05-23T15:58:01.042Z,64.89
2023-05-23T16:00:28.325Z,64.98
2023-05-23T16:02:55.615Z,65.18
2023-05-23T16:05:22.872Z,65.59
2023-05-23T16:07:51.539Z,65.41
2023-05-23T16:10:19.315Z,65.56
2023-05-23T16:12:47.671Z,65.47
2023-05-23T16:15:14.725Z,65.99
2023-05-23T16:17:41.762Z,65.59
2023-05-23T16:20:09.126Z,66.31
2023-05-23T16:22:36.541Z,66.04
2023-05-23T16:25:03.676Z,66.09
2023-05-23T16:27:32.673Z,66.02
2023-05-23T16:29:59.736Z,66.23
2023-05-23T16:32:29.126Z,66.47
2023-05-23T16:34:56.686Z,66.63
2023-05-23T16:37:23.845Z,67.03
2023-05-23T16:39:50.926Z,67.05
2023-05-23T16:42:18.068Z,67.16
2023-05-23T16:44:45.665Z,67.28
2023-05-23T16:47:12.772Z,67.20
2023-05-23T16:49:39.889Z,67.45
2023-05-23T16:52:06.989Z,67.50
2023-05-23T16:54:34.092Z,67.65
2023-05-23T16:57:02.205Z,67.72
2023-05-23T16:59:30.140Z,67.68
2023-05-23T17:01:57.711Z,67.88
2023-05-23T17:04:25.104Z,67.91
2023-05-23T17:06:52.214Z,68.08
2023-05-23T17:09:21.567Z,68.25
2023-05-23T17:11:49.304Z,68.07
2023-05-23T17:14:16.566Z,68.44
2023-05-23T17:16:43.729Z,68.58
2023-05-23T17:19:10.960Z,68.46
2023-05-23T17:21:38.095Z,68.59
2023-05-23T17:24:05.362Z,68.65
2023-05-23T17:26:32.716Z,69.10
2023-05-23T17:28:59.754Z,69.14
2023-05-23T17:31:29.667Z,69.34
2023-05-23T17:33:57.742Z,69.35
2023-05-23T17:36:24.959Z,69.74
2023-05-23T17:38:54.885Z,70.04
2023-05-23T17:41:24.819Z,70.01
2023-05-23T17:43:51.978Z,70.57
2023-05-23T17:46:19.208Z,70.46
2023-05-23T17:48:48.101Z,70.79
2023-05-23T17:51:16.215Z,70.86
2023-05-23T17:53:43.849Z,70.67
2023-05-23T17:56:11.114Z,71.01
2023-05-23T17:58:39.818Z,71.12
2023-05-23T18:01:08.766Z,71.15
2023-05-23T18:03:36.018Z,71.24
2023-05-23T18:06:03.537Z,71.35
2023-05-23T18:08:30.734Z,71.46
2023-05-23T18:10:57.846Z,71.27
2023-05-23T18:13:24.928Z,71.80
2023-05-23T18:15:52.302Z,71.95
2023-05-23T18:18:19.463Z,71.91
2023-05-23T18:20:47.322Z,72.12
2023-05-23T18:23:14.460Z,72.10
2023-05-23T18:25:41.512Z,71.92
2023-05-23T18:28:08.658Z,72.12
2023-05-23T18:30:35.862Z,72.16
2023-05-23T18:33:02.972Z,72.15
2023-05-23T18:35:30.164Z,72.09
2023-05-23T18:37:57.279Z,72.14
2023-05-23T18:40:26.185Z,72.50
2023-05-23T18:42:53.723Z,72.51
2023-05-23T18:45:20.814Z,72.41
2023-05-23T18:47:47.999Z,72.86
2023-05-23T18:50:15.245Z,73.03
2023-05-23T18:52:43.085Z,73.12
2023-05-23T18:55:11.345Z,73.23
2023-05-23T18:57:38.809Z,72.87
2023-05-23T19:00:07.549Z,72.90
2023-05-23T19:02:35.301Z,73.07
2023-05-23T19:05:03.043Z,73.25
2023-05-23T19:07:30.980Z,73.40
2023-05-23T19:09:58.127Z,73.25
2023-05-23T19:12:25.402Z,73.24
2023-05-23T19:14:52.988Z,73.40
2023-05-23T19:17:20.107Z,73.54
2023-05-23T19:19:47.216Z,73.50
2023-05-23T19:22:14.341Z,73.64
2023-05-23T19:24:41.701Z,73.68
2023-05-23T19:27:08.791Z,73.62
2023-05-23T19:29:36.001Z,73.53
2023-05-23T19:32:03.174Z,73.64
2023-05-23T19:34:30.404Z,73.68
2023-05-23T19:36:58.061Z,73.74
2023-05-23T19:39:25.142Z,73.91
2023-05-23T19:41:52.261Z,73.97
2023-05-23T19:44:19.763Z,73.78
2023-05-23T19:46:46.856Z,73.70
2023-05-23T19:49:15.303Z,73.53
2023-05-23T19:51:42.402Z,73.48
2023-05-23T19:54:09.599Z,73.54
2023-05-23T19:56:36.978Z,73.72
2023-05-23T19:59:04.236Z,73.62
2023-05-23T20:01:33.781Z,73.39
2023-05-23T20:04:01.177Z,73.48
2023-05-23T20:06:28.734Z,73.31
2023-05-23T20:08:55.921Z,73.42
2023-05-23T20:11:23.301Z,73.20
2023-05-23T20:13:50.425Z,73.33
2023-05-23T20:16:17.661Z,73.16
2023-05-23T20:18:44.795Z,73.09
2023-05-23T20:21:11.949Z,73.14
2023-05-23T20:23:41.106Z,73.25
2023-05-23T20:26:09.740Z,73.06
2023-05-23T20:28:37.806Z,73.09
2023-05-23T20:31:05.054Z,72.77
2023-05-23T20:33:34.407Z,73.01
2023-05-23T20:36:01.784Z,72.88
2023-05-23T20:38:29.143Z,73.17
2023-05-23T20:40:56.242Z,72.90
2023-05-23T20:43:23.824Z,72.99
2023-05-23T20:45:50.900Z,72.86
2023-05-23T20:48:17.977Z,73.07
2023-05-23T20:50:45.688Z,73.00
2023-05-23T20:53:12.834Z,73.16
2023-05-23T20:55:40.100Z,73.11
2023-05-23T20:58:07.432Z,73.14
2023-05-23T21:00:34.552Z,72.99
2023-05-23T21:03:02.339Z,72.87
2023-05-23T21:05:29.591Z,72.79
2023-05-23T21:07:56.696Z,72.64
2023-05-23T21:10:23.729Z,72.70
2023-05-23T21:12:51.830Z,72.96
2023-05-23T21:15:19.700Z,72.85
2023-05-23T21:17:46.851Z,72.91
2023-05-23T21:20:14.017Z,72.84
2023-05-23T21:22:41.431Z,72.66
2023-05-23T21:25:08.940Z,72.61
2023-05-23T21:27:36.014Z,72.50
2023-05-23T21:30:03.600Z,72.74
2023-05-23T21:32:33.450Z,72.74
2023-05-23T21:35:00.906Z,72.61
2023-05-23T21:37:28.056Z,72.54
2023-05-23T21:39:55.124Z,72.60
2023-05-23T21:42:22.247Z,72.70
2023-05-23T21:44:49.325Z,72.64
2023-05-23T21:47:16.513Z,72.81
2023-05-23T21:49:43.696Z,72.51
2023-05-23T21:52:10.812Z,72.53
2023-05-23T21:54:37.990Z,72.58
2023-05-23T21:57:05.470Z,72.58
2023-05-23T21:59:32.506Z,72.61
2023-05-23T22:01:59.823Z,72.61
2023-05-23T22:04:27.043Z,72.71
2023-05-23T22:06:54.107Z,72.94
2023-05-23T22:09:21.258Z,72.72
2023-05-23T22:11:48.339Z,72.65
2023-05-23T22:14:15.567Z,72.59
2023-05-23T22:16:42.652Z,72.61
2023-05-23T22:19:10.436Z,72.56
2023-05-23T22:21:38.209Z,72.61
2023-05-23T22:24:05.903Z,72.58
2023-05-23T22:26:33.011Z,72.67
2023-05-23T22:29:00.500Z,72.67
2023-05-23T22:31:29.050Z,72.67
2023-05-23T22:33:56.533Z,72.65
2023-05-23T22:36:23.879Z,72.78
2023-05-23T22:38:51.029Z,72.62
2023-05-23T22:41:18.366Z,72.49
2023-05-23T22:43:45.822Z,72.53
2023-05-23T22:46:12.886Z,72.41
2023-05-23T22:48:39.952Z,72.34
2023-05-23T22:51:08.081Z,72.26
2023-05-23T22:53:35.332Z,72.20
2023-05-23T22:56:02.903Z,72.04
2023-05-23T22:58:30.075Z,72.04
2023-05-23T23:00:57.154Z,71.86
2023-05-23T23:03:24.218Z,71.79
2023-05-23T23:05:51.395Z,71.56
2023-05-23T23:08:19.538Z,71.47
2023-05-23T23:10:47.007Z,71.56
2023-05-23T23:13:14.254Z,71.52
2023-05-23T23:15:42.978Z,71.41
2023-05-23T23:18:13.514Z,71.42
2023-05-23T23:20:41.570Z,71.15
2023-05-23T23:23:09.109Z,70.91
2023-05-23T23:25:36.615Z,70.94
2023-05-23T23:28:04.032Z,70.93
2023-05-23T23:30:31.105Z,70.73
2023-05-23T23:32:58.408Z,70.43
2023-05-23T23:35:25.575Z,70.26
2023-05-23T23:37:52.625Z,70.05
2023-05-23T23:40:19.668Z,69.92
2023-05-23T23:42:48.199Z,69.67
2023-05-23T23:45:15.469Z,69.48
2023-05-23T23:47:43.044Z,69.34
2023-05-23T23:50:10.419Z,68.93
2023-05-23T23:52:37.536Z,68.46
2023-05-23T23:55:05.237Z,68.15
2023-05-23T23:57:33.253Z,68.08
